Terminal Aerodrome Forecast
Issued by NWS

Home | Current Version | Previous Version | Text Only | Print | Product List | Glossary On
Versions: 1 2 3 4 5 6 7 8 9 10 11 12 13 14 15 16 17 18 19 20 21 22 23
000
FTUS44 KMAF 042325
TAFHOB
TAF
KHOB 042325Z 0500/0524 02007KT P6SM SCT015 BKN050
      TEMPO 0511/0513 5SM BR BKN020
     FM052100 25015KT P6SM SCT150=

USA.gov is the U.S. government's official web portal to all federal, state and local government web resources and services.